Strona główna
METAR-TAF:

METAR-TAF

Lotnisko :

Port lotniczy Woensdrecht

Woensdrecht, Holandia

Szerokość geograficzna: 51-27N, Długość geograficzna: 004-20E, wysokość: 20 m

Aktualna obserwacja pogody

Raport powstał 20 minut temu, godzina 08:25 UTC
Wiatr 13 kt od wschodnio-północny wschód, zmienny między północno-północny wschód i wschodnio-południowy wschód
Temperatura 16°C
Wilgotność 48%
Ciśnienie 1034 hPa
Widzialność 10 km lub więcej
Brak chmur poniżej 1500 m i brak chmur cumulonimbus

METAR: EHWO 280825Z AUTO 06011KT 020V110 9999 NCD 16/05 Q1034 BLU 07013KT CAVOK

czas: 10:45 (08:45 UTC)

Prognoza

Raport powstał 4 godziny i 15 minut temu, godzina 04:30 UTC
Prognoza ważna od 28 godzina 05 UTC do 28 godzina 17 UTC
Wiatr 9 kt od północny wschód
Widzialność 10 km lub więcej
Brak chmur poniżej 1500 m i brak chmur cumulonimbus
Przejściowo
od 28 godzina 07 UTC do 28 godzina 17 UTC
Wiatr 10 kt od północny wschód w porywach dochodzący do 20 kt

TAF: EHWO 280430Z 2805/2817 05009KT CAVOK TEMPO 2807/2817 05010G20KT

Obserwacja i prognoza pogody dla ponad 4000 lotnisk (raport METAR i TAF).

Dostępne stacje oznaczono żółtymi i czerwonymi punktami na mapie.

Najedź kursorem aby zobaczyć nazwę stacji.

Kliknij aby zobaczyć obserwacje i prognozy pogody.

Aby zmienić mapę: kliknij na zielony przycisk z czarnym krzyżykiem, aby powiększyć; na zielony przycisk z myślnikiem, aby pomniejszyć; na zielone strzałki, aby przejść do map sąsiednich.


METAR-TAF: